´╗┐

Indeks požarne ogroženosti za amatersko vremensko postajo

(Podrobnosti so pod tabelo)
Legenda:
Majhna (0-210)
Zelo visoka (490 - 630)

Srednja (210 - 350)
Ekstremna (630+)

Visoka (350 - 490)


Flame  Flame
118.6
Datum Temp. (°C) Hitrost Vetra (km/h) Dež (mm) RH Dni od zadnjega dežja pwsFWI
Napovedi, vključno z današnjim dnem, so nad rdečo črto!
22/10/21 12.0 13.0 43.0 0.65 0 55.2
21/10/21 12.0 12.0 44.0 0.99 0 67.8
20/10/21 14.0 9.0 3.3 0.78 0 90.5
19/10/21 16.0 8.0 0.0 0.59 12 120.0
18/10/21 16.0 10.0 0.0 0.50 11 128.7
17/10/21 15.4 12.0 0.0 0.50 10 118.6
16/10/21 14.9 11.0 0.0 0.55 9 118.9
15/10/21 14.4 13.0 0.0 0.54 8 130.2
14/10/21 14.8 11.0 0.0 0.44 7 141.6
13/10/21 13.3 12.0 0.0 0.41 6 137.3
12/10/21 10.4 8.0 0.0 0.55 5 145.2
11/10/21 14.2 16.0 0.0 0.57 4 104.6
10/10/21 10.1 25.0 0.0 0.53 3 81.4
09/10/21 13.3 21.0 0.0 0.50 2 51.4
08/10/21 10.4 23.0 0.0 0.70 1 18.4
07/10/21 11.4 27.0 0.5 0.58 0 48.2
06/10/21 13.0 35.0 36.8 0.76 0 50.2
05/10/21 15.9 26.0 4.7 0.74 0 78.3
04/10/21 24.4 24.0 2.6 0.82 0 106.5
03/10/21 17.9 21.0 2.1 0.75 0 124.7
02/10/21 19.1 10.0 0.0 0.60 2 95.3
01/10/21 16.9 14.0 0.0 0.55 1 76.7
30/09/21 15.9 16.0 0.5 0.58 0 69.8
29/09/21 22.4 12.0 0.0 0.58 1 61.6
28/09/21 24.1 8.0 0.5 0.57 0 66.9
27/09/21 20.5 14.0 23.8 0.73 0 68.1
26/09/21 20.6 11.0 1.6 0.78 0 95.4
25/09/21 19.4 11.0 0.0 0.63 5 94.6
24/09/21 17.2 12.0 0.0 0.68 4 75.3
23/09/21 17.6 9.0 0.0 0.64 3 79.3

CumulusUtils Version 4.8.3 - generated at 18/10/2021 01:00 - © Hans Rottier
Science background here. Prediction: https://www.yourweather.co.uk/
sucontract_SNC